createdAt,value
2023-02-22T00:01:19.240Z,101418.38
2023-02-22T00:03:52.112Z,101411.41
2023-02-22T00:06:25.222Z,101407.94
2023-02-22T00:08:53.249Z,101413.16
2023-02-22T00:11:20.786Z,101423.63
2023-02-22T00:13:50.568Z,101411.44
2023-02-22T00:16:21.667Z,101411.44
2023-02-22T00:18:50.339Z,101413.16
2023-02-22T00:21:18.957Z,101413.19
2023-02-22T00:23:48.222Z,101409.72
2023-02-22T00:26:23.457Z,101412.34
2023-02-22T00:28:54.305Z,101413.22
2023-02-22T00:31:22.386Z,101415.84
2023-02-22T00:33:50.261Z,101417.59
2023-02-22T00:36:18.426Z,101426.28
2023-02-22T00:38:45.919Z,101427.19
2023-02-22T00:41:13.507Z,101424.59
2023-02-22T00:43:41.481Z,101425.44
2023-02-22T00:46:09.133Z,101423.72
2023-02-22T00:48:36.624Z,101416.75
2023-02-22T00:51:04.485Z,101418.47
2023-02-22T00:53:32.021Z,101416.75
2023-02-22T00:55:59.577Z,101414.16
2023-02-22T00:58:28.821Z,101407.22
2023-02-22T01:00:58.460Z,101401.97
2023-02-22T01:03:26.020Z,101407.19
2023-02-22T01:05:53.813Z,101397.63
2023-02-22T01:08:21.389Z,101408.06
2023-02-22T01:10:49.539Z,101400.22
2023-02-22T01:13:19.171Z,101389.78
2023-02-22T01:15:47.049Z,101392.38
2023-02-22T01:18:17.397Z,101401.94
2023-02-22T01:20:48.071Z,101387.16
2023-02-22T01:23:17.358Z,101382.81
2023-02-22T01:25:45.217Z,101385.44
2023-02-22T01:28:15.291Z,101377.59
2023-02-22T01:30:42.871Z,101378.44
2023-02-22T01:33:12.798Z,101382.81
2023-02-22T01:35:42.501Z,101377.59
2023-02-22T01:38:10.733Z,101369.75
2023-02-22T01:40:43.689Z,101364.53
2023-02-22T01:43:32.650Z,101374.09
2023-02-22T01:46:26.068Z,101367.13
2023-02-22T01:49:00.143Z,101355.81
2023-02-22T01:51:37.796Z,101368.00
2023-02-22T01:54:13.831Z,101358.44
2023-02-22T01:57:02.247Z,101354.06
2023-02-22T01:59:36.526Z,101359.28
2023-02-22T02:02:06.707Z,101360.19
2023-02-22T02:04:36.397Z,101357.56
2023-02-22T02:07:08.842Z,101351.47
2023-02-22T02:09:54.390Z,101347.13
2023-02-22T02:12:24.090Z,101342.78
2023-02-22T02:14:52.535Z,101340.16
2023-02-22T02:17:23.680Z,101333.22
2023-02-22T02:20:02.145Z,101338.44
2023-02-22T02:23:08.477Z,101334.97
2023-02-22T02:25:58.002Z,101334.97
2023-02-22T02:29:24.797Z,101330.63
2023-02-22T02:32:31.929Z,101329.78
2023-02-22T02:35:45.397Z,101321.09
2023-02-22T02:38:17.412Z,101317.63
2023-02-22T02:41:29.870Z,101320.22
2023-02-22T02:44:00.137Z,101315.88
2023-02-22T02:46:52.690Z,101315.88
2023-02-22T02:49:34.494Z,101312.41
2023-02-22T02:52:04.846Z,101311.53
2023-02-22T02:54:34.272Z,101310.69
2023-02-22T02:57:03.354Z,101303.69
2023-02-22T02:59:34.727Z,101297.59
2023-02-22T03:02:49.282Z,101294.13
2023-02-22T03:06:12.846Z,101288.03
2023-02-22T03:09:04.986Z,101291.53
2023-02-22T03:12:02.225Z,101291.53
2023-02-22T03:14:46.985Z,101290.66
2023-02-22T03:17:36.792Z,101288.91
2023-02-22T03:20:13.623Z,101286.28
2023-02-22T03:22:55.616Z,101288.03
2023-02-22T03:25:41.582Z,101291.50
2023-02-22T03:28:15.593Z,101286.31
2023-02-22T03:31:22.822Z,101284.56
2023-02-22T03:34:16.938Z,101278.50
2023-02-22T03:36:59.721Z,101294.13
2023-02-22T03:39:31.324Z,101286.31
2023-02-22T03:42:17.179Z,101281.97
2023-02-22T03:44:49.898Z,101276.75
2023-02-22T03:47:29.810Z,101275.88
2023-02-22T03:50:09.533Z,101273.25
2023-02-22T03:52:38.223Z,101268.91
2023-02-22T03:55:13.590Z,101272.38
2023-02-22T03:57:49.790Z,101268.03
2023-02-22T04:00:28.125Z,101268.91
2023-02-22T04:02:56.455Z,101268.06
2023-02-22T04:05:25.082Z,101259.34
2023-02-22T04:07:55.056Z,101256.72
2023-02-22T04:10:24.327Z,101259.34
2023-02-22T04:12:52.264Z,101251.50
2023-02-22T04:15:23.769Z,101253.25
2023-02-22T04:17:55.644Z,101255.88
2023-02-22T04:20:25.625Z,101250.63
2023-02-22T04:22:59.434Z,101249.75
2023-02-22T04:25:28.003Z,101243.66
2023-02-22T04:27:57.820Z,101234.97
2023-02-22T04:30:37.671Z,101234.09
2023-02-22T04:33:08.800Z,101230.63
2023-02-22T04:35:37.805Z,101225.41
2023-02-22T04:38:09.251Z,101223.66
2023-02-22T04:40:40.100Z,101223.66
2023-02-22T04:43:08.693Z,101220.19
2023-02-22T04:45:36.396Z,101204.50
2023-02-22T04:48:05.912Z,101209.75
2023-02-22T04:50:34.712Z,101205.41
2023-02-22T04:53:04.091Z,101198.47
2023-02-22T04:55:31.649Z,101194.09
2023-02-22T04:57:59.683Z,101191.50
2023-02-22T05:00:27.420Z,101182.81
2023-02-22T05:03:00.128Z,101189.78
2023-02-22T05:05:28.103Z,101191.50
2023-02-22T05:07:55.828Z,101188.91
2023-02-22T05:10:24.798Z,101188.88
2023-02-22T05:12:52.448Z,101188.88
2023-02-22T05:15:22.104Z,101184.56
2023-02-22T05:17:50.065Z,101173.22
2023-02-22T05:20:28.722Z,101170.63
2023-02-22T05:22:57.669Z,101174.09
2023-02-22T05:25:26.448Z,101174.97
2023-02-22T05:27:57.422Z,101182.81
2023-02-22T05:30:30.807Z,101182.81
2023-02-22T05:32:59.452Z,101186.25
2023-02-22T05:35:29.101Z,101181.91
2023-02-22T05:37:57.517Z,101175.81
2023-02-22T05:40:27.121Z,101180.19
2023-02-22T05:42:56.865Z,101176.69
2023-02-22T05:45:27.448Z,101170.63
2023-02-22T05:47:56.056Z,101174.09
2023-02-22T05:50:24.754Z,101175.81
2023-02-22T05:52:54.090Z,101170.59
2023-02-22T05:55:24.325Z,101167.97
2023-02-22T05:57:53.075Z,101163.63
2023-02-22T06:00:30.625Z,101157.53
2023-02-22T06:03:02.196Z,101166.22
2023-02-22T06:05:31.104Z,101159.28
2023-02-22T06:07:59.824Z,101151.47
2023-02-22T06:10:28.243Z,101155.78
2023-02-22T06:12:57.479Z,101142.75
2023-02-22T06:15:27.726Z,101144.50
2023-02-22T06:17:57.861Z,101145.34
2023-02-22T06:20:29.932Z,101146.22
2023-02-22T06:22:59.215Z,101134.94
2023-02-22T06:25:31.399Z,101139.25
2023-02-22T06:28:00.928Z,101138.41
2023-02-22T06:30:29.839Z,101132.31
2023-02-22T06:32:57.747Z,101124.47
2023-02-22T06:35:25.428Z,101132.31
2023-02-22T06:37:53.091Z,101121.88
2023-02-22T06:40:21.051Z,101125.38
2023-02-22T06:42:49.597Z,101118.44
2023-02-22T06:45:18.366Z,101121.00
2023-02-22T06:47:47.785Z,101114.03
2023-02-22T06:50:35.850Z,101114.03
2023-02-22T06:53:04.672Z,101107.97
2023-02-22T06:55:35.149Z,101104.50
2023-02-22T06:58:04.960Z,101110.56
2023-02-22T07:00:33.609Z,101101.00
2023-02-22T07:03:04.318Z,101099.28
2023-02-22T07:05:31.858Z,101106.25
2023-02-22T07:08:08.156Z,101107.97
2023-02-22T07:10:38.344Z,101107.97
2023-02-22T07:13:08.649Z,101116.66
2023-02-22T07:15:36.547Z,101114.91
2023-02-22T07:18:04.697Z,101110.56
2023-02-22T07:20:33.201Z,101116.66
2023-02-22T07:23:02.023Z,101110.56
2023-02-22T07:25:29.465Z,101111.44
2023-02-22T07:27:57.688Z,101115.78
2023-02-22T07:30:34.531Z,101114.03
2023-02-22T07:33:07.402Z,101115.75
2023-02-22T07:35:48.385Z,101126.19
2023-02-22T07:38:19.058Z,101132.25
2023-02-22T07:40:47.601Z,101136.59
2023-02-22T07:43:24.618Z,101139.22
2023-02-22T07:45:59.006Z,101139.22
2023-02-22T07:48:29.978Z,101141.78
2023-02-22T07:50:58.873Z,101140.09
2023-02-22T07:53:30.876Z,101131.38
2023-02-22T07:56:01.436Z,101127.03
2023-02-22T07:58:31.561Z,101127.88
2023-02-22T08:01:02.154Z,101134.84
2023-02-22T08:03:36.426Z,101136.56
2023-02-22T08:06:08.120Z,101145.22
2023-02-22T08:08:37.064Z,101128.69
2023-02-22T08:11:05.701Z,101130.44
2023-02-22T08:13:33.507Z,101134.78
2023-02-22T08:16:01.054Z,101134.75
2023-02-22T08:18:28.584Z,101140.84
2023-02-22T08:20:57.552Z,101147.81
2023-02-22T08:23:27.058Z,101138.22
2023-02-22T08:25:55.780Z,101144.28
2023-02-22T08:28:25.027Z,101139.06
2023-02-22T08:30:55.894Z,101138.19
2023-02-22T08:33:24.764Z,101139.91
2023-02-22T08:35:52.575Z,101138.09
2023-02-22T08:38:28.395Z,101140.72
2023-02-22T08:40:56.729Z,101139.88
2023-02-22T08:43:24.479Z,101136.34
2023-02-22T08:45:53.315Z,101138.94
2023-02-22T08:48:21.684Z,101140.59
2023-02-22T08:50:49.929Z,101137.09
2023-02-22T08:53:18.050Z,101131.81
2023-02-22T08:55:45.848Z,101124.81
2023-02-22T08:58:14.021Z,101121.28
2023-02-22T09:00:44.642Z,101114.28
2023-02-22T09:03:15.046Z,101110.69
2023-02-22T09:05:44.502Z,101106.28
2023-02-22T09:08:12.608Z,101110.59
2023-02-22T09:10:40.765Z,101112.25
2023-02-22T09:13:08.748Z,101110.47
2023-02-22T09:15:36.409Z,101115.72
2023-02-22T09:18:08.538Z,101115.69
2023-02-22T09:20:36.756Z,101116.50
2023-02-22T09:23:06.782Z,101112.97
2023-02-22T09:25:34.333Z,101103.34
2023-02-22T09:28:02.770Z,101108.53
2023-02-22T09:30:36.688Z,101103.22
2023-02-22T09:33:14.483Z,101093.59
2023-02-22T09:35:47.792Z,101090.06
2023-02-22T09:38:26.141Z,101089.06
2023-02-22T09:41:34.580Z,101086.31
2023-02-22T09:44:16.141Z,101081.00
2023-02-22T09:46:45.922Z,101081.00
2023-02-22T09:50:15.913Z,101077.38
2023-02-22T09:53:05.730Z,101082.53
2023-02-22T09:55:48.039Z,101080.69
2023-02-22T09:58:33.484Z,101073.63
2023-02-22T10:01:28.119Z,101077.03
2023-02-22T10:04:24.763Z,101078.69
2023-02-22T10:07:39.035Z,101067.22
2023-02-22T10:10:07.640Z,101060.97
2023-02-22T10:12:56.454Z,101067.03
2023-02-22T10:15:55.176Z,101054.66
2023-02-22T10:19:11.324Z,101051.97
2023-02-22T10:21:42.583Z,101051.84
2023-02-22T10:24:23.652Z,101054.25
2023-02-22T10:26:54.232Z,101054.94
2023-02-22T10:29:54.799Z,101047.81
2023-02-22T10:32:36.413Z,101046.75
2023-02-22T10:35:18.312Z,101040.38
2023-02-22T10:37:48.235Z,101041.09
2023-02-22T10:40:23.831Z,101038.25
2023-02-22T10:42:51.426Z,101045.09
2023-02-22T10:45:32.714Z,101045.78
2023-02-22T10:48:09.577Z,101044.81
2023-02-22T10:50:42.300Z,101049.06
2023-02-22T10:53:12.518Z,101044.56
2023-02-22T10:56:15.400Z,101038.16
2023-02-22T10:58:52.437Z,101042.38
2023-02-22T11:01:38.290Z,101035.19
2023-02-22T11:04:24.280Z,101030.69
2023-02-22T11:07:01.583Z,101039.28
2023-02-22T11:09:29.187Z,101041.69
2023-02-22T11:12:21.217Z,101041.38
2023-02-22T11:14:49.554Z,101052.63
2023-02-22T11:17:28.383Z,101041.88
2023-02-22T11:19:57.256Z,101044.97
2023-02-22T11:22:41.103Z,101033.97
2023-02-22T11:25:18.656Z,101032.59
2023-02-22T11:27:47.102Z,101028.69
2023-02-22T11:30:32.492Z,101023.88
2023-02-22T11:33:24.636Z,101027.75
2023-02-22T11:35:57.297Z,101023.94
2023-02-22T11:38:33.964Z,101020.94
2023-02-22T11:41:08.252Z,101021.50
2023-02-22T11:43:38.232Z,101011.53
2023-02-22T11:46:17.123Z,101013.81
2023-02-22T11:49:04.692Z,101007.50
2023-02-22T11:51:49.395Z,101016.03
2023-02-22T11:54:57.350Z,101006.94
2023-02-22T11:57:41.175Z,101010.16
2023-02-22T12:00:36.733Z,101003.81
2023-02-22T12:03:37.771Z,101000.13
2023-02-22T12:06:33.179Z,100989.47
2023-02-22T12:09:19.179Z,100988.38
2023-02-22T12:12:07.184Z,100985.53
2023-02-22T12:14:48.824Z,100972.09
2023-02-22T12:17:31.605Z,100977.25
2023-02-22T12:20:24.765Z,100976.25
2023-02-22T12:23:40.694Z,100977.06
2023-02-22T12:26:20.114Z,100967.22
2023-02-22T12:29:06.337Z,100960.97
2023-02-22T12:31:45.851Z,100958.09
2023-02-22T12:34:20.217Z,100950.91
2023-02-22T12:36:55.180Z,100948.03
2023-02-22T12:39:56.754Z,100953.00
2023-02-22T12:42:47.247Z,100950.91
2023-02-22T12:45:28.316Z,100945.47
2023-02-22T12:48:17.339Z,100951.44
2023-02-22T12:50:48.953Z,100958.44
2023-02-22T12:53:30.820Z,100961.16
2023-02-22T12:56:23.899Z,100964.63
2023-02-22T12:59:31.580Z,100968.09
2023-02-22T13:02:26.680Z,100974.19
2023-02-22T13:04:55.089Z,100974.19
2023-02-22T13:07:49.971Z,100978.69
2023-02-22T13:10:39.472Z,100966.53
2023-02-22T13:13:53.676Z,100970.25
2023-02-22T13:17:09.229Z,100960.84
2023-02-22T13:20:08.728Z,100967.16
2023-02-22T13:22:47.839Z,100955.78
2023-02-22T13:25:45.698Z,100952.22
2023-02-22T13:28:13.247Z,100956.69
2023-02-22T13:31:03.583Z,100954.13
2023-02-22T13:34:30.087Z,100946.44
2023-02-22T13:37:30.509Z,100954.63
2023-02-22T13:40:30.698Z,100965.28
2023-02-22T13:43:43.421Z,100957.44
2023-02-22T13:46:25.854Z,100960.16
2023-02-22T13:49:26.410Z,100954.94
2023-02-22T13:52:09.503Z,100954.19
2023-02-22T13:54:54.646Z,100953.31
2023-02-22T13:57:28.377Z,100959.56
2023-02-22T14:00:15.041Z,100951.69
2023-02-22T14:03:13.429Z,100950.09
2023-02-22T14:05:47.018Z,100951.13
2023-02-22T14:08:17.120Z,100946.75
2023-02-22T14:11:06.728Z,100951.25
2023-02-22T14:14:17.177Z,100946.13
2023-02-22T14:16:53.468Z,100950.63
2023-02-22T14:19:25.211Z,100956.00
2023-02-22T14:22:03.418Z,100962.47
2023-02-22T14:24:44.670Z,100956.44
2023-02-22T14:27:17.600Z,100960.03
2023-02-22T14:29:56.420Z,100963.75
2023-02-22T14:32:33.509Z,100959.47
2023-02-22T14:35:25.597Z,100969.38
2023-02-22T14:37:59.631Z,100963.66
2023-02-22T14:40:33.190Z,100963.94
2023-02-22T14:43:14.925Z,100970.41
2023-02-22T14:46:01.497Z,100983.13
2023-02-22T14:48:45.423Z,100980.81
2023-02-22T14:51:26.833Z,100976.69
2023-02-22T14:54:18.701Z,100982.16
2023-02-22T14:57:00.569Z,100986.75
2023-02-22T14:59:32.260Z,100975.47
2023-02-22T15:02:15.024Z,100976.47
2023-02-22T15:04:54.893Z,100978.38
2023-02-22T15:07:27.441Z,100977.66
2023-02-22T15:10:44.557Z,100976.03
2023-02-22T15:13:31.465Z,100971.81
2023-02-22T15:16:03.484Z,100981.56
2023-02-22T15:18:43.184Z,100982.53
2023-02-22T15:21:16.370Z,100986.97
2023-02-22T15:23:53.574Z,100986.16
2023-02-22T15:26:42.482Z,100986.19
2023-02-22T15:29:38.232Z,100991.59
2023-02-22T15:32:29.834Z,100989.00
2023-02-22T15:35:27.814Z,100991.69
2023-02-22T15:38:07.123Z,100989.16
2023-02-22T15:40:36.242Z,100992.75
2023-02-22T15:43:10.608Z,100988.41
2023-02-22T15:45:43.062Z,100992.84
2023-02-22T15:48:12.136Z,100999.19
2023-02-22T15:50:39.830Z,100996.63
2023-02-22T15:53:28.755Z,101000.97
2023-02-22T15:56:01.040Z,101006.22
2023-02-22T15:58:30.100Z,101001.88
2023-02-22T16:01:07.935Z,101008.94
2023-02-22T16:03:44.925Z,101003.78
2023-02-22T16:06:40.278Z,101007.41
2023-02-22T16:09:15.702Z,101008.34
2023-02-22T16:11:46.311Z,101000.53
2023-02-22T16:14:43.138Z,100995.34
2023-02-22T16:17:37.741Z,101003.34
2023-02-22T16:20:11.436Z,101006.94
2023-02-22T16:22:41.417Z,101004.38
2023-02-22T16:25:18.223Z,101000.84
2023-02-22T16:27:57.492Z,100998.34
2023-02-22T16:30:34.506Z,101008.00
2023-02-22T16:33:13.753Z,101003.69
2023-02-22T16:35:51.720Z,101014.28
2023-02-22T16:38:21.141Z,101007.34
2023-02-22T16:40:55.473Z,101015.25
2023-02-22T16:43:29.491Z,101010.94
2023-02-22T16:45:57.690Z,101017.06
2023-02-22T16:48:30.235Z,101020.59
2023-02-22T16:51:06.879Z,101018.91
2023-02-22T16:53:34.887Z,101016.34
2023-02-22T16:56:08.376Z,101015.47
2023-02-22T16:58:40.188Z,101019.91
2023-02-22T17:01:08.578Z,101017.34
2023-02-22T17:03:36.314Z,101021.75
2023-02-22T17:06:04.093Z,101019.13
2023-02-22T17:08:32.446Z,101025.31
2023-02-22T17:11:00.754Z,101024.47
2023-02-22T17:13:29.432Z,101029.75
2023-02-22T17:15:58.301Z,101032.41
2023-02-22T17:18:28.789Z,101032.47
2023-02-22T17:20:56.684Z,101039.53
2023-02-22T17:23:24.539Z,101036.91
2023-02-22T17:25:56.596Z,101034.34
2023-02-22T17:28:25.531Z,101041.38
2023-02-22T17:31:00.645Z,101042.25
2023-02-22T17:33:33.405Z,101050.13
2023-02-22T17:36:03.996Z,101048.44
2023-02-22T17:38:32.321Z,101044.13
2023-02-22T17:41:01.433Z,101048.47
2023-02-22T17:43:29.238Z,101052.88
2023-02-22T17:45:57.572Z,101060.78
2023-02-22T17:48:26.011Z,101066.94
2023-02-22T17:50:53.985Z,101068.72
2023-02-22T17:53:24.698Z,101074.84
2023-02-22T17:55:53.078Z,101069.69
2023-02-22T17:58:22.764Z,101076.66
2023-02-22T18:00:51.196Z,101079.28
2023-02-22T18:03:25.705Z,101078.44
2023-02-22T18:05:57.855Z,101074.97
2023-02-22T18:08:31.207Z,101081.22
2023-02-22T18:10:59.008Z,101082.09
2023-02-22T18:13:27.758Z,101082.03
2023-02-22T18:16:05.251Z,101078.53
2023-02-22T18:18:32.967Z,101078.53
2023-02-22T18:21:00.648Z,101075.00
2023-02-22T18:23:31.257Z,101081.09
2023-02-22T18:26:11.076Z,101081.09
2023-02-22T18:28:39.612Z,101076.75
2023-02-22T18:31:17.026Z,101085.47
2023-02-22T18:33:48.500Z,101081.09
2023-02-22T18:36:22.796Z,101082.00
2023-02-22T18:38:53.655Z,101079.38
2023-02-22T18:41:25.473Z,101075.91
2023-02-22T18:43:55.554Z,101078.53
2023-02-22T18:46:24.905Z,101075.00
2023-02-22T18:48:55.658Z,101073.28
2023-02-22T18:51:24.548Z,101074.16
2023-02-22T18:53:59.983Z,101076.78
2023-02-22T18:56:30.259Z,101076.78
2023-02-22T18:59:01.250Z,101078.56
2023-02-22T19:01:31.862Z,101082.09
2023-02-22T19:04:00.453Z,101075.97
2023-02-22T19:06:28.287Z,101074.25
2023-02-22T19:08:56.001Z,101077.72
2023-02-22T19:11:25.474Z,101079.50
2023-02-22T19:13:57.596Z,101075.97
2023-02-22T19:16:27.480Z,101076.88
2023-02-22T19:18:57.622Z,101079.50
2023-02-22T19:21:28.952Z,101078.66
2023-02-22T19:24:01.785Z,101070.78
2023-02-22T19:26:29.712Z,101071.66
2023-02-22T19:29:01.114Z,101081.28
2023-02-22T19:31:33.729Z,101083.94
2023-02-22T19:34:05.946Z,101084.81
2023-02-22T19:36:34.192Z,101083.94
2023-02-22T19:39:02.078Z,101087.50
2023-02-22T19:41:31.110Z,101089.22
2023-02-22T19:43:59.640Z,101089.22
2023-02-22T19:46:27.220Z,101091.91
2023-02-22T19:48:59.563Z,101091.00
2023-02-22T19:51:31.818Z,101091.00
2023-02-22T19:54:03.779Z,101097.09
2023-02-22T19:56:34.983Z,101092.75
2023-02-22T19:59:13.452Z,101087.53
2023-02-22T20:01:44.805Z,101094.56
2023-02-22T20:04:21.473Z,101094.59
2023-02-22T20:06:56.517Z,101101.59
2023-02-22T20:09:36.370Z,101101.59
2023-02-22T20:12:05.634Z,101109.47
2023-02-22T20:14:34.233Z,101102.56
2023-02-22T20:17:02.382Z,101111.31
2023-02-22T20:19:29.965Z,101115.72
2023-02-22T20:21:57.583Z,101106.19
2023-02-22T20:24:25.388Z,101109.69
2023-02-22T20:26:55.845Z,101114.13
2023-02-22T20:29:29.650Z,101115.00
2023-02-22T20:32:00.612Z,101111.56
2023-02-22T20:34:33.363Z,101125.59
2023-02-22T20:37:02.214Z,101125.63
2023-02-22T20:39:29.721Z,101125.63
2023-02-22T20:42:00.398Z,101121.31
2023-02-22T20:44:28.012Z,101122.22
2023-02-22T20:46:55.804Z,101131.91
2023-02-22T20:49:23.326Z,101124.91
2023-02-22T20:51:50.816Z,101129.28
2023-02-22T20:54:18.710Z,101132.78
2023-02-22T20:56:47.586Z,101120.50
2023-02-22T20:59:18.719Z,101126.63
2023-02-22T21:01:49.344Z,101131.00
2023-02-22T21:04:17.704Z,101131.91
2023-02-22T21:06:46.973Z,101134.53
2023-02-22T21:09:19.308Z,101134.56
2023-02-22T21:11:47.553Z,101141.59
2023-02-22T21:14:20.417Z,101135.50
2023-02-22T21:16:50.444Z,101133.81
2023-02-22T21:19:26.034Z,101134.69
2023-02-22T21:21:59.767Z,101134.75
2023-02-22T21:24:29.086Z,101132.13
2023-02-22T21:26:58.964Z,101138.25
2023-02-22T21:29:29.074Z,101138.25
2023-02-22T21:31:56.893Z,101138.25
2023-02-22T21:34:25.794Z,101139.16
2023-02-22T21:36:53.662Z,101135.69
2023-02-22T21:39:22.548Z,101137.41
2023-02-22T21:41:52.056Z,101131.31
2023-02-22T21:44:20.499Z,101131.34
2023-02-22T21:46:50.734Z,101128.72
2023-02-22T21:49:23.121Z,101137.47
2023-02-22T21:51:52.479Z,101127.84
2023-02-22T21:54:23.608Z,101127.00
2023-02-22T21:56:51.484Z,101134.88
2023-02-22T21:59:23.397Z,101129.63
2023-02-22T22:01:58.148Z,101130.47
2023-02-22T22:04:29.311Z,101126.09
2023-02-22T22:06:59.618Z,101127.00
2023-02-22T22:09:32.591Z,101129.63
2023-02-22T22:12:05.305Z,101126.13
2023-02-22T22:14:35.504Z,101125.25
2023-02-22T22:17:07.018Z,101122.66
2023-02-22T22:19:39.376Z,101120.16
2023-02-22T22:22:07.903Z,101125.41
2023-02-22T22:24:35.745Z,101127.97
2023-02-22T22:27:07.602Z,101128.88
2023-02-22T22:29:35.392Z,101121.88
2023-02-22T22:32:03.457Z,101128.88
2023-02-22T22:34:31.105Z,101121.88
2023-02-22T22:36:58.783Z,101127.13
2023-02-22T22:39:27.010Z,101127.13
2023-02-22T22:41:55.304Z,101126.25
2023-02-22T22:44:23.110Z,101127.13
2023-02-22T22:46:53.575Z,101127.13
2023-02-22T22:49:23.653Z,101131.50
2023-02-22T22:51:51.310Z,101128.88
2023-02-22T22:54:18.874Z,101131.50
2023-02-22T22:56:46.483Z,101121.00
2023-02-22T22:59:14.044Z,101126.25
2023-02-22T23:01:44.733Z,101125.41
2023-02-22T23:04:18.926Z,101132.38
2023-02-22T23:06:52.349Z,101131.59
2023-02-22T23:09:25.204Z,101134.22
2023-02-22T23:12:08.417Z,101133.34
2023-02-22T23:14:39.972Z,101138.59
2023-02-22T23:17:14.226Z,101134.25
2023-02-22T23:19:44.879Z,101130.72
2023-02-22T23:22:14.148Z,101128.13
2023-02-22T23:24:44.437Z,101129.88
2023-02-22T23:27:12.323Z,101128.16
2023-02-22T23:29:42.277Z,101138.66
2023-02-22T23:32:10.210Z,101128.16
2023-02-22T23:34:41.123Z,101134.28
2023-02-22T23:37:10.730Z,101131.69
2023-02-22T23:39:38.725Z,101140.44
2023-02-22T23:42:08.909Z,101136.06
2023-02-22T23:44:36.792Z,101121.22
2023-02-22T23:47:04.650Z,101135.22
2023-02-22T23:49:35.988Z,101129.13
2023-02-22T23:52:09.418Z,101130.88
2023-02-22T23:54:40.342Z,101130.03
2023-02-22T23:57:08.830Z,101129.13
2023-02-22T23:59:40.356Z,101130.88
